createdAt,value
2018-09-15T00:00:46.274Z,12.60
2018-09-15T00:03:14.889Z,12.70
2018-09-15T00:05:43.771Z,12.70
2018-09-15T00:08:12.120Z,12.80
2018-09-15T00:10:40.701Z,12.80
2018-09-15T00:13:09.987Z,12.90
2018-09-15T00:15:39.078Z,12.90
2018-09-15T00:18:10.525Z,12.90
2018-09-15T00:20:40.967Z,12.90
2018-09-15T00:23:11.237Z,12.90
2018-09-15T00:25:40.431Z,12.80
2018-09-15T00:28:09.825Z,12.70
2018-09-15T00:30:38.335Z,12.70
2018-09-15T00:33:07.452Z,12.60
2018-09-15T00:35:36.029Z,12.50
2018-09-15T00:38:04.449Z,12.50
2018-09-15T00:40:33.164Z,12.40
2018-09-15T00:43:01.481Z,12.30
2018-09-15T00:45:30.109Z,12.30
2018-09-15T00:47:58.493Z,12.30
2018-09-15T00:50:26.917Z,12.20
2018-09-15T00:52:55.870Z,12.10
2018-09-15T00:55:24.452Z,12.10
2018-09-15T00:57:52.960Z,12.10
2018-09-15T01:00:21.806Z,12.10
2018-09-15T01:02:50.228Z,12.00
2018-09-15T01:05:19.395Z,12.00
2018-09-15T01:07:47.828Z,12.10
2018-09-15T01:10:16.246Z,12.10
2018-09-15T01:12:44.630Z,12.10
2018-09-15T01:15:13.006Z,12.20
2018-09-15T01:17:41.448Z,12.20
2018-09-15T01:20:10.083Z,12.20
2018-09-15T01:22:39.369Z,12.20
2018-09-15T01:25:09.316Z,12.20
2018-09-15T01:27:37.798Z,12.30
2018-09-15T01:30:06.376Z,12.30
2018-09-15T01:32:34.880Z,12.30
2018-09-15T01:35:03.390Z,12.40
2018-09-15T01:37:31.809Z,12.40
2018-09-15T01:40:00.342Z,12.40
2018-09-15T01:42:28.827Z,12.50
2018-09-15T01:44:57.184Z,12.50
2018-09-15T01:47:26.216Z,12.50
2018-09-15T01:49:55.248Z,12.50
2018-09-15T01:52:25.504Z,12.50
2018-09-15T01:54:53.984Z,12.50
2018-09-15T01:57:22.358Z,12.40
2018-09-15T01:59:51.414Z,12.40
2018-09-15T02:02:20.187Z,12.30
2018-09-15T02:04:49.606Z,12.30
2018-09-15T02:07:18.235Z,12.20
2018-09-15T02:09:46.602Z,12.20
2018-09-15T02:12:15.118Z,12.20
2018-09-15T02:14:43.590Z,12.20
2018-09-15T02:17:12.120Z,12.10
2018-09-15T02:19:40.475Z,12.10
2018-09-15T02:22:08.846Z,12.10
2018-09-15T02:24:37.202Z,12.10
2018-09-15T02:27:06.115Z,12.10
2018-09-15T02:29:34.583Z,12.20
2018-09-15T02:32:03.104Z,12.20
2018-09-15T02:34:31.512Z,12.10
2018-09-15T02:36:59.895Z,12.10
2018-09-15T02:39:28.422Z,12.10
2018-09-15T02:41:57.090Z,12.20
2018-09-15T02:44:25.461Z,12.20
2018-09-15T02:46:53.986Z,12.20
2018-09-15T02:49:22.409Z,12.30
2018-09-15T02:51:50.891Z,12.30
2018-09-15T02:54:19.560Z,12.20
2018-09-15T02:56:48.064Z,12.20
2018-09-15T02:59:16.586Z,12.20
2018-09-15T03:01:45.072Z,12.10
2018-09-15T03:04:14.094Z,12.00
2018-09-15T03:06:43.332Z,12.00
2018-09-15T03:09:13.151Z,12.00
2018-09-15T03:11:42.029Z,12.00
2018-09-15T03:14:10.435Z,11.90
2018-09-15T03:16:39.359Z,11.90
2018-09-15T03:19:07.840Z,11.80
2018-09-15T03:21:36.221Z,11.80
2018-09-15T03:24:04.645Z,11.80
2018-09-15T03:26:33.207Z,11.70
2018-09-15T03:29:01.635Z,11.80
2018-09-15T03:31:30.003Z,11.70
2018-09-15T03:33:58.363Z,11.70
2018-09-15T03:36:26.831Z,11.60
2018-09-15T03:38:55.227Z,11.50
2018-09-15T03:41:23.790Z,11.40
2018-09-15T03:43:52.416Z,11.40
2018-09-15T03:46:21.247Z,11.30
2018-09-15T03:48:49.785Z,11.30
2018-09-15T03:51:18.364Z,11.30
2018-09-15T03:53:47.646Z,11.30
2018-09-15T03:56:16.129Z,11.20
2018-09-15T03:58:44.460Z,11.20
2018-09-15T04:01:12.888Z,11.30
2018-09-15T04:03:41.317Z,11.20
2018-09-15T04:06:09.739Z,11.30
2018-09-15T04:08:38.120Z,11.20
2018-09-15T04:11:06.614Z,11.20
2018-09-15T04:13:36.396Z,11.20
2018-09-15T04:16:04.988Z,11.10
2018-09-15T04:18:33.492Z,11.00
2018-09-15T04:21:02.083Z,11.00
2018-09-15T04:23:31.052Z,10.90
2018-09-15T04:25:59.590Z,10.90
2018-09-15T04:28:28.013Z,10.90
2018-09-15T04:30:57.407Z,10.80
2018-09-15T04:33:25.906Z,10.70
2018-09-15T04:35:54.366Z,10.70
2018-09-15T04:38:22.819Z,10.60
2018-09-15T04:40:52.968Z,10.60
2018-09-15T04:43:21.467Z,10.60
2018-09-15T04:45:51.292Z,10.60
2018-09-15T04:48:19.811Z,10.60
2018-09-15T04:50:48.249Z,10.60
2018-09-15T04:53:16.763Z,10.60
2018-09-15T04:55:45.304Z,10.60
2018-09-15T04:58:13.651Z,10.60
2018-09-15T05:00:42.195Z,10.60
2018-09-15T05:03:10.701Z,10.50
2018-09-15T05:05:40.133Z,10.50
2018-09-15T05:08:08.675Z,10.50
2018-09-15T05:10:37.081Z,10.50
2018-09-15T05:13:05.642Z,10.50
2018-09-15T05:15:34.081Z,10.40
2018-09-15T05:18:02.653Z,10.50
2018-09-15T05:20:31.236Z,10.50
2018-09-15T05:23:00.598Z,10.50
2018-09-15T05:25:33.333Z,10.50
2018-09-15T05:28:02.767Z,10.50
2018-09-15T05:30:32.089Z,10.50
2018-09-15T05:33:00.566Z,10.50
2018-09-15T05:35:30.026Z,10.50
2018-09-15T05:37:59.593Z,10.50
2018-09-15T05:40:28.428Z,10.50
2018-09-15T05:42:58.855Z,10.50
2018-09-15T05:45:28.757Z,10.50
2018-09-15T05:47:58.349Z,10.50
2018-09-15T05:50:28.055Z,10.50
2018-09-15T05:52:57.783Z,10.50
2018-09-15T05:55:27.485Z,10.60
2018-09-15T05:57:57.446Z,10.60
2018-09-15T06:00:27.081Z,10.70
2018-09-15T06:02:57.132Z,10.80
2018-09-15T06:05:25.697Z,10.80
2018-09-15T06:07:54.367Z,10.90
2018-09-15T06:10:23.899Z,10.90
2018-09-15T06:12:53.823Z,11.00
2018-09-15T06:15:24.157Z,11.10
2018-09-15T06:17:53.551Z,11.20
2018-09-15T06:20:22.236Z,11.30
2018-09-15T06:22:50.924Z,11.40
2018-09-15T06:25:20.370Z,11.40
2018-09-15T06:27:49.328Z,11.50
2018-09-15T06:30:18.099Z,11.60
2018-09-15T06:32:47.686Z,11.70
2018-09-15T06:35:16.714Z,11.80
2018-09-15T06:37:45.912Z,11.90
2018-09-15T06:40:14.556Z,12.00
2018-09-15T06:42:43.078Z,12.20
2018-09-15T06:45:11.501Z,12.30
2018-09-15T06:47:40.311Z,12.40
2018-09-15T06:50:09.338Z,12.50
2018-09-15T06:52:38.090Z,12.70
2018-09-15T06:55:06.566Z,12.80
2018-09-15T06:57:35.030Z,12.90
2018-09-15T07:00:03.985Z,13.10
2018-09-15T07:02:32.878Z,13.30
2018-09-15T07:05:01.353Z,13.40
2018-09-15T07:07:30.019Z,13.50
2018-09-15T07:09:58.615Z,13.70
2018-09-15T07:12:27.410Z,13.90
2018-09-15T07:14:55.839Z,14.00
2018-09-15T07:17:24.482Z,14.10
2018-09-15T07:19:53.139Z,14.30
2018-09-15T07:22:21.701Z,14.50
2018-09-15T07:24:51.049Z,14.60
2018-09-15T07:27:19.521Z,14.80
2018-09-15T07:29:47.933Z,14.80
2018-09-15T07:32:16.526Z,14.80
2018-09-15T07:34:45.842Z,15.00
2018-09-15T07:37:14.474Z,15.00
2018-09-15T07:39:43.053Z,15.00
2018-09-15T07:42:11.521Z,15.00
2018-09-15T07:44:40.138Z,15.00
2018-09-15T07:47:08.974Z,15.10
2018-09-15T07:49:38.418Z,15.20
2018-09-15T07:52:07.078Z,15.30
2018-09-15T07:54:35.545Z,15.40
2018-09-15T07:57:04.003Z,15.40
2018-09-15T07:59:32.578Z,15.50
2018-09-15T08:02:06.421Z,15.70
2018-09-15T08:04:35.681Z,15.80
2018-09-15T08:07:04.390Z,15.90
2018-09-15T08:09:33.384Z,16.10
2018-09-15T08:12:02.175Z,16.30
2018-09-15T08:14:30.851Z,16.40
2018-09-15T08:16:59.312Z,16.70
2018-09-15T08:19:30.572Z,16.90
2018-09-15T08:22:00.103Z,17.20
2018-09-15T08:24:29.536Z,17.50
2018-09-15T08:27:00.499Z,17.50
2018-09-15T08:29:29.928Z,17.60
2018-09-15T08:32:00.705Z,17.70
2018-09-15T08:34:31.157Z,17.60
2018-09-15T08:37:00.599Z,17.60
2018-09-15T08:39:30.232Z,17.60
2018-09-15T08:41:59.713Z,17.60
2018-09-15T08:44:29.151Z,17.50
2018-09-15T08:46:59.292Z,17.60
2018-09-15T08:49:28.786Z,17.50
2018-09-15T08:51:59.040Z,17.60
2018-09-15T08:54:28.514Z,17.60
2018-09-15T08:56:57.946Z,17.80
2018-09-15T08:59:28.161Z,18.00
2018-09-15T09:01:57.746Z,18.10
2018-09-15T09:04:27.486Z,18.20
2018-09-15T09:06:57.564Z,18.20
2018-09-15T09:09:26.902Z,18.30
2018-09-15T09:11:56.398Z,18.50
2018-09-15T09:14:26.168Z,18.60
2018-09-15T09:16:55.609Z,18.50
2018-09-15T09:19:25.108Z,18.40
2018-09-15T09:21:54.555Z,18.50
2018-09-15T09:24:24.916Z,18.60
2018-09-15T09:26:54.315Z,18.50
2018-09-15T09:29:23.751Z,18.40
2018-09-15T09:31:54.423Z,18.30
2018-09-15T09:34:24.568Z,18.30
2018-09-15T09:36:54.643Z,18.30
2018-09-15T09:39:24.106Z,18.50
2018-09-15T09:41:53.575Z,18.70
2018-09-15T09:44:23.311Z,19.10
2018-09-15T09:46:52.859Z,19.40
2018-09-15T09:49:22.437Z,19.70
2018-09-15T09:51:51.871Z,20.00
2018-09-15T09:54:21.310Z,20.10
2018-09-15T09:56:50.637Z,20.30
2018-09-15T09:59:20.272Z,20.40
2018-09-15T10:01:59.869Z,20.40
2018-09-15T10:04:30.429Z,20.30
2018-09-15T10:06:59.771Z,20.30
2018-09-15T10:09:29.403Z,20.50
2018-09-15T10:11:58.834Z,20.50
2018-09-15T10:14:28.831Z,20.50
2018-09-15T10:16:58.495Z,20.50
2018-09-15T10:19:28.105Z,20.40
2018-09-15T10:21:57.615Z,20.40
2018-09-15T10:24:26.880Z,20.10
2018-09-15T10:26:56.365Z,19.90
2018-09-15T10:29:26.121Z,19.90
2018-09-15T10:31:55.643Z,19.80
2018-09-15T10:34:25.878Z,19.70
2018-09-15T10:36:55.421Z,19.70
2018-09-15T10:39:25.678Z,19.60
2018-09-15T10:41:54.512Z,19.70
2018-09-15T10:44:23.945Z,20.00
2018-09-15T10:46:53.563Z,20.10
2018-09-15T10:49:24.025Z,20.20
2018-09-15T10:51:53.475Z,20.10
2018-09-15T10:54:22.834Z,20.20
2018-09-15T10:56:52.398Z,20.00
2018-09-15T10:59:21.658Z,19.90
2018-09-15T11:01:52.293Z,19.90
2018-09-15T11:04:21.876Z,19.80
2018-09-15T11:06:51.783Z,19.70
2018-09-15T11:09:21.660Z,19.70
2018-09-15T11:11:51.094Z,19.60
2018-09-15T11:14:20.526Z,19.70
2018-09-15T11:16:50.080Z,19.80
2018-09-15T11:19:19.764Z,19.80
2018-09-15T11:21:50.287Z,20.00
2018-09-15T11:24:19.621Z,20.20
2018-09-15T11:26:49.010Z,20.50
2018-09-15T11:29:18.833Z,20.80
2018-09-15T11:31:52.093Z,21.00
2018-09-15T11:34:21.964Z,21.10
2018-09-15T11:36:51.329Z,21.20
2018-09-15T11:39:20.704Z,21.00
2018-09-15T11:41:50.164Z,21.30
2018-09-15T11:44:19.740Z,21.80
2018-09-15T11:46:49.750Z,22.10
2018-09-15T11:49:19.103Z,22.60
2018-09-15T11:54:17.890Z,22.70
2018-09-15T11:56:48.660Z,22.50
2018-09-15T11:59:18.609Z,22.20
2018-09-15T12:01:48.408Z,21.80
2018-09-15T12:04:17.794Z,21.40
2018-09-15T12:06:47.805Z,21.20
2018-09-15T12:09:18.697Z,21.00
2018-09-15T12:11:48.282Z,20.80
2018-09-15T12:14:17.623Z,20.90
2018-09-15T12:16:47.024Z,20.90
2018-09-15T12:19:16.589Z,21.00
2018-09-15T12:21:45.905Z,20.80
2018-09-15T12:24:15.563Z,20.80
2018-09-15T12:26:44.829Z,21.00
2018-09-15T12:29:14.291Z,20.80
2018-09-15T12:31:43.938Z,20.70
2018-09-15T12:34:13.383Z,20.90
2018-09-15T12:36:42.949Z,21.30
2018-09-15T12:39:12.275Z,21.60
2018-09-15T12:41:41.886Z,21.90
2018-09-15T12:44:11.215Z,22.20
2018-09-15T12:46:41.246Z,22.40
2018-09-15T12:49:10.724Z,22.70
2018-09-15T12:51:40.110Z,22.70
2018-09-15T12:54:09.426Z,22.80
2018-09-15T12:56:39.580Z,22.90
2018-09-15T12:59:09.339Z,23.00
2018-09-15T13:01:39.229Z,23.40
2018-09-15T13:04:09.211Z,23.40
2018-09-15T13:06:38.590Z,23.60
2018-09-15T13:09:10.815Z,23.60
2018-09-15T13:11:41.221Z,23.70
2018-09-15T13:14:10.744Z,23.60
2018-09-15T13:16:40.202Z,23.60
2018-09-15T13:19:10.116Z,23.60
2018-09-15T13:21:39.532Z,23.60
2018-09-15T13:24:09.049Z,23.70
2018-09-15T13:26:39.143Z,23.50
2018-09-15T13:29:09.480Z,23.70
2018-09-15T13:31:39.195Z,23.70
2018-09-15T13:34:09.516Z,23.40
2018-09-15T13:36:39.001Z,23.20
2018-09-15T13:39:11.163Z,22.60
2018-09-15T13:41:40.636Z,22.20
2018-09-15T13:44:10.057Z,21.90
2018-09-15T13:46:39.744Z,21.80
2018-09-15T13:49:09.259Z,21.80
2018-09-15T13:51:38.962Z,21.70
2018-09-15T13:54:08.764Z,21.90
2018-09-15T13:56:38.134Z,21.70
2018-09-15T13:59:07.758Z,21.50
2018-09-15T14:01:37.189Z,21.20
2018-09-15T14:04:06.808Z,21.40
2018-09-15T14:06:36.282Z,21.50
2018-09-15T14:09:07.740Z,21.50
2018-09-15T14:11:37.568Z,21.20
2018-09-15T14:14:07.772Z,21.20
2018-09-15T14:16:37.200Z,21.50
2018-09-15T14:19:07.694Z,21.50
2018-09-15T14:21:37.274Z,21.60
2018-09-15T14:24:07.604Z,21.90
2018-09-15T14:26:37.292Z,21.90
2018-09-15T14:29:06.926Z,21.80
2018-09-15T14:31:36.468Z,21.20
2018-09-15T14:34:06.888Z,21.00
2018-09-15T14:36:36.327Z,20.60
2018-09-15T14:39:08.152Z,20.30
2018-09-15T14:41:37.707Z,20.40
2018-09-15T14:44:07.346Z,20.60
2018-09-15T14:46:36.790Z,20.80
2018-09-15T14:49:06.040Z,21.10
2018-09-15T14:51:35.546Z,21.20
2018-09-15T14:54:05.158Z,21.40
2018-09-15T14:56:35.344Z,21.20
2018-09-15T14:59:05.237Z,21.30
2018-09-15T15:01:34.728Z,21.10
2018-09-15T15:04:04.323Z,21.30
2018-09-15T15:06:34.372Z,21.30
2018-09-15T15:09:04.913Z,21.30
2018-09-15T15:11:34.843Z,21.40
2018-09-15T15:14:04.326Z,21.50
2018-09-15T15:16:33.838Z,21.50
2018-09-15T15:19:03.276Z,21.70
2018-09-15T15:21:33.076Z,21.70
2018-09-15T15:24:02.654Z,21.70
2018-09-15T15:26:32.150Z,22.00
2018-09-15T15:30:46.446Z,22.30
2018-09-15T15:33:16.121Z,22.30
2018-09-15T15:35:45.572Z,22.40
2018-09-15T15:38:15.775Z,21.70
2018-09-15T15:40:45.356Z,21.50
2018-09-15T15:43:14.816Z,21.40
2018-09-15T15:45:44.245Z,21.40
2018-09-15T15:48:13.751Z,21.20
2018-09-15T15:50:43.137Z,20.90
2018-09-15T15:53:12.707Z,20.70
2018-09-15T15:55:42.296Z,20.50
2018-09-15T15:58:12.144Z,20.20
2018-09-15T16:00:41.523Z,20.00
2018-09-15T16:03:11.227Z,20.00
2018-09-15T16:05:40.674Z,20.00
2018-09-15T16:08:10.722Z,20.00
2018-09-15T16:10:40.091Z,20.00
2018-09-15T16:13:09.745Z,19.90
2018-09-15T16:15:39.212Z,19.90
2018-09-15T16:18:11.993Z,19.70
2018-09-15T16:20:42.824Z,19.60
2018-09-15T16:23:12.267Z,19.60
2018-09-15T16:25:41.739Z,19.50
2018-09-15T16:28:11.205Z,19.40
2018-09-15T16:30:40.903Z,19.30
2018-09-15T16:33:11.033Z,19.20
2018-09-15T16:35:40.765Z,19.10
2018-09-15T16:38:25.137Z,19.20
2018-09-15T16:40:54.845Z,19.00
2018-09-15T16:43:24.462Z,18.80
2018-09-15T16:45:53.812Z,18.80
2018-09-15T16:48:23.248Z,18.80
2018-09-15T16:50:52.610Z,18.70
2018-09-15T16:53:22.351Z,18.60
2018-09-15T16:55:51.734Z,18.60
2018-09-15T16:58:22.065Z,18.50
2018-09-15T17:00:51.990Z,18.50
2018-09-15T17:03:22.361Z,18.50
2018-09-15T17:05:52.538Z,18.40
2018-09-15T17:08:28.346Z,18.40
2018-09-15T17:10:57.912Z,18.40
2018-09-15T17:13:27.185Z,18.40
2018-09-15T17:15:57.562Z,18.30
2018-09-15T17:18:27.107Z,18.30
2018-09-15T17:20:56.870Z,18.30
2018-09-15T17:23:27.149Z,18.20
2018-09-15T17:25:57.684Z,18.10
2018-09-15T17:28:26.953Z,18.00
2018-09-15T17:30:56.222Z,17.90
2018-09-15T17:33:25.774Z,17.80
2018-09-15T17:35:55.397Z,17.70
2018-09-15T17:38:25.104Z,17.60
2018-09-15T17:40:55.619Z,17.50
2018-09-15T17:43:25.521Z,17.40
2018-09-15T17:45:55.221Z,17.30
2018-09-15T17:48:24.655Z,17.20
2018-09-15T17:50:55.172Z,17.10
2018-09-15T17:53:26.188Z,17.00
2018-09-15T17:55:55.875Z,16.90
2018-09-15T17:58:26.575Z,16.80
2018-09-15T18:00:56.375Z,16.80
2018-09-15T18:03:25.797Z,16.70
2018-09-15T18:05:56.099Z,16.50
2018-09-15T18:08:25.648Z,16.20
2018-09-15T18:10:55.534Z,16.00
2018-09-15T18:13:25.246Z,15.80
2018-09-15T18:15:55.495Z,15.70
2018-09-15T18:18:24.831Z,15.60
2018-09-15T18:20:54.403Z,15.40
2018-09-15T18:23:23.776Z,15.30
2018-09-15T18:25:53.380Z,15.10
2018-09-15T18:28:22.901Z,15.00
2018-09-15T18:30:52.511Z,14.80
2018-09-15T18:33:21.831Z,14.70
2018-09-15T18:35:51.418Z,14.60
2018-09-15T18:38:20.995Z,14.50
2018-09-15T18:40:50.385Z,14.40
2018-09-15T18:43:19.733Z,14.30
2018-09-15T18:45:49.260Z,14.20
2018-09-15T18:48:19.681Z,14.10
2018-09-15T18:50:49.121Z,14.00
2018-09-15T18:53:18.481Z,14.00
2018-09-15T18:55:49.294Z,13.90
2018-09-15T18:58:18.621Z,13.80
2018-09-15T19:00:48.293Z,13.70
2018-09-15T19:03:18.417Z,13.60
2018-09-15T19:05:47.832Z,13.60
2018-09-15T19:08:17.270Z,13.50
2018-09-15T19:10:46.770Z,13.40
2018-09-15T19:13:17.371Z,13.30
2018-09-15T19:15:47.063Z,13.20
2018-09-15T19:18:18.090Z,13.20
2018-09-15T19:20:47.402Z,13.10
2018-09-15T19:23:17.678Z,13.10
2018-09-15T19:25:47.170Z,13.00
2018-09-15T19:28:16.636Z,13.00
2018-09-15T19:30:45.193Z,12.90
2018-09-15T19:33:14.608Z,12.90
2018-09-15T19:35:43.125Z,12.80
2018-09-15T19:38:12.880Z,12.80
2018-09-15T19:40:42.343Z,12.70
2018-09-15T19:43:10.788Z,12.60
2018-09-15T19:45:39.513Z,12.50
2018-09-15T19:48:08.111Z,12.50
2018-09-15T19:50:37.240Z,12.40
2018-09-15T19:53:06.462Z,12.30
2018-09-15T19:55:35.467Z,12.30
2018-09-15T19:58:03.951Z,12.20
2018-09-15T20:00:33.232Z,12.10
2018-09-15T20:03:01.836Z,12.10
2018-09-15T20:05:30.328Z,12.00
2018-09-15T20:07:58.874Z,12.00
2018-09-15T20:10:27.603Z,12.00
2018-09-15T20:12:56.895Z,11.90
2018-09-15T20:15:27.049Z,11.90
2018-09-15T20:17:54.911Z,11.80
2018-09-15T20:20:23.542Z,11.80
2018-09-15T20:22:53.714Z,11.80
2018-09-15T20:25:23.212Z,11.70
2018-09-15T20:27:51.922Z,11.70
2018-09-15T20:30:20.678Z,11.60
2018-09-15T20:32:49.406Z,11.60
2018-09-15T20:35:17.823Z,11.60
2018-09-15T20:37:46.967Z,11.50
2018-09-15T20:40:16.188Z,11.50
2018-09-15T20:42:44.640Z,11.50
2018-09-15T20:45:13.655Z,11.50
2018-09-15T20:47:42.002Z,11.40
2018-09-15T20:50:10.761Z,11.40
2018-09-15T20:52:39.961Z,11.40
2018-09-15T20:55:08.850Z,11.40
2018-09-15T20:57:37.267Z,11.40
2018-09-15T21:00:06.440Z,11.40
2018-09-15T21:02:34.885Z,11.40
2018-09-15T21:05:03.335Z,11.30
2018-09-15T21:07:31.855Z,11.30
2018-09-15T21:10:00.367Z,11.20
2018-09-15T21:12:29.008Z,11.20
2018-09-15T21:14:57.640Z,11.20
2018-09-15T21:17:26.334Z,11.20
2018-09-15T21:19:55.476Z,11.20
2018-09-15T21:22:23.854Z,11.10
2018-09-15T21:24:52.286Z,11.10
2018-09-15T21:27:20.644Z,11.00
2018-09-15T21:29:49.080Z,11.00
2018-09-15T21:32:17.704Z,11.00
2018-09-15T21:34:46.272Z,11.00
2018-09-15T21:37:15.678Z,11.00
2018-09-15T21:39:44.181Z,11.00
2018-09-15T21:42:12.750Z,11.00
2018-09-15T21:44:41.934Z,11.00
2018-09-15T21:47:10.300Z,10.90
2018-09-15T21:49:38.705Z,11.00
2018-09-15T21:52:07.096Z,10.90
2018-09-15T21:54:35.474Z,10.90
2018-09-15T21:57:04.036Z,10.80
2018-09-15T21:59:32.495Z,10.80
2018-09-15T22:02:01.167Z,10.70
2018-09-15T22:04:29.781Z,10.70
2018-09-15T22:06:58.446Z,10.70
2018-09-15T22:09:27.022Z,10.70
2018-09-15T22:11:56.325Z,10.70
2018-09-15T22:14:24.685Z,10.60
2018-09-15T22:16:53.118Z,10.60
2018-09-15T22:19:21.673Z,10.50
2018-09-15T22:21:50.364Z,10.50
2018-09-15T22:24:19.495Z,10.50
2018-09-15T22:26:48.159Z,10.40
2018-09-15T22:29:16.533Z,10.40
2018-09-15T22:31:45.020Z,10.30
2018-09-15T22:34:14.068Z,10.40
2018-09-15T22:36:42.707Z,10.30
2018-09-15T22:39:11.224Z,10.30
2018-09-15T22:41:39.779Z,10.20
2018-09-15T22:44:08.956Z,10.20
2018-09-15T22:46:37.523Z,10.10
2018-09-15T22:49:06.068Z,10.10
2018-09-15T22:51:34.386Z,10.00
2018-09-15T22:54:02.979Z,9.90
2018-09-15T22:56:31.406Z,9.90
2018-09-15T22:59:01.105Z,9.80
2018-09-15T23:01:30.222Z,9.80
2018-09-15T23:04:04.301Z,9.70
2018-09-15T23:06:34.350Z,9.70
2018-09-15T23:09:03.050Z,9.60
2018-09-15T23:11:32.128Z,9.60
2018-09-15T23:14:00.675Z,9.60
2018-09-15T23:16:29.131Z,9.60
